^^
Atglen Borough Observatory Historical Data
 
Daily Summary for September 22, 2019 Units:  English    Metric   Both
Daily Weekly Monthly Yearly Custom
  Current: High: Low: Average:
Temperature: 86.5 °F 87.6 °F 55 °F 66.5 °F
Dew Point: 68 °F 69.6 °F 54 °F 60.7 °F
Humidity: 54% 97% 51% 84%
Wind Speed: 4.9mph 6.9mph 0mph 1mph
Wind Gust: 7mph 12mph - -
WindSouth - - South
Pressure: 30.04 in 30.18 in 30.04 in -
Precipitation: 0 in      
Historical Graphs
 
 
Tabular Data for September 22, 2019
Time Temperature Dew Point Pressure Wind Wind Speed Wind Gust Humidity Rainfall Rate (Hourly)
00:00 59 °F 57 °F 30.18 in Calm     93% 0 in
00:05 58.8 °F 56.8 °F 30.18 in Calm     93% 0 in
00:10 58.6 °F 56.7 °F 30.18 in Calm     93% 0 in
00:15 58.6 °F 56.7 °F 30.18 in Calm     93% 0 in
00:20 58.5 °F 56.5 °F 30.18 in Calm     93% 0 in
00:25 58.5 °F 56.7 °F 30.18 in Calm     94% 0 in
00:30 58.5 °F 56.7 °F 30.18 in Calm     94% 0 in
00:35 58.5 °F 56.7 °F 30.18 in Calm     94% 0 in
00:40 58.3 °F 56.5 °F 30.18 in Calm     94% 0 in
00:45 58.1 °F 56.3 °F 30.17 in Calm     94% 0 in
00:50 58.1 °F 56.3 °F 30.17 in Calm     94% 0 in
00:55 57.9 °F 56.1 °F 30.17 in Calm     94% 0 in
01:00 57.9 °F 56.1 °F 30.17 in Calm     94% 0 in
01:05 57.9 °F 56.1 °F 30.17 in Calm     94% 0 in
01:10 57.7 °F 55.9 °F 30.17 in Calm     94% 0 in
01:15 57.7 °F 56.3 °F 30.17 in Calm     95% 0 in
01:20 57.7 °F 56.3 °F 30.17 in Calm     95% 0 in
01:25 57.6 °F 56.1 °F 30.17 in Calm     95% 0 in
01:30 57.6 °F 56.1 °F 30.17 in Calm     95% 0 in
01:35 57.7 °F 56.3 °F 30.17 in Calm     95% 0 in
01:40 57.6 °F 56.1 °F 30.17 in Calm     95% 0 in
01:45 57.6 °F 56.1 °F 30.17 in Calm     95% 0 in
01:50 57.6 °F 56.1 °F 30.17 in Calm     95% 0 in
01:55 57.4 °F 55.9 °F 30.17 in Calm     95% 0 in
02:00 57.4 °F 55.9 °F 30.17 in Calm     95% 0 in
02:05 57.2 °F 55.8 °F 30.17 in Calm     95% 0 in
02:10 57.4 °F 55.9 °F 30.17 in Calm     95% 0 in
02:15 57.4 °F 55.9 °F 30.16 in Calm     95% 0 in
02:20 57.6 °F 56.1 °F 30.16 in Calm     95% 0 in
02:25 57.6 °F 56.1 °F 30.16 in Calm     95% 0 in
02:30 57.4 °F 55.9 °F 30.16 in Calm     95% 0 in
02:35 57.2 °F 55.8 °F 30.16 in Calm     95% 0 in
02:40 57 °F 55.6 °F 30.16 in Calm     95% 0 in
02:45 57 °F 55.6 °F 30.16 in Calm     95% 0 in
02:50 56.8 °F 55.4 °F 30.16 in Calm     95% 0 in
02:55 56.8 °F 55.4 °F 30.15 in Calm     95% 0 in
03:00 56.8 °F 55.4 °F 30.15 in Calm     95% 0 in
03:05 56.8 °F 55.4 °F 30.15 in Calm     95% 0 in
03:10 56.8 °F 55.4 °F 30.15 in Calm     95% 0 in
03:15 56.8 °F 55.4 °F 30.15 in Calm     95% 0 in
03:20 56.7 °F 55.2 °F 30.15 in Calm     95% 0 in
03:25 56.7 °F 55.6 °F 30.15 in Calm     96% 0 in
03:30 56.7 °F 55.6 °F 30.14 in Calm     96% 0 in
03:35 56.5 °F 55 °F 30.14 in Calm     95% 0 in
03:40 56.5 °F 55.4 °F 30.14 in Calm     96% 0 in
03:45 56.5 °F 55.4 °F 30.14 in Calm     96% 0 in
03:50 56.5 °F 55 °F 30.14 in Calm     95% 0 in
03:55 56.3 °F 55.2 °F 30.14 in Calm     96% 0 in
04:00 56.3 °F 55.2 °F 30.14 in Calm     96% 0 in
04:05 56.1 °F 55 °F 30.14 in Calm     96% 0 in
04:10 56.1 °F 55 °F 30.14 in Calm     96% 0 in
04:15 55.9 °F 54.9 °F 30.14 in Calm     96% 0 in
04:20 55.9 °F 54.9 °F 30.14 in Calm     96% 0 in
04:25 55.9 °F 54.9 °F 30.14 in Calm     96% 0 in
04:30 55.9 °F 54.9 °F 30.14 in Calm     96% 0 in
04:35 55.9 °F 54.9 °F 30.14 in Calm     96% 0 in
04:40 55.9 °F 54.9 °F 30.14 in Calm     96% 0 in
04:45 55.9 °F 54.9 °F 30.14 in Calm     96% 0 in
04:50 55.9 °F 54.9 °F 30.14 in Calm     96% 0 in
04:55 55.8 °F 54.7 °F 30.14 in Calm     96% 0 in
05:00 55.8 °F 54.7 °F 30.14 in Calm     96% 0 in
05:05 55.8 °F 54.7 °F 30.14 in Calm     96% 0 in
05:10 55.8 °F 54.7 °F 30.14 in Calm     96% 0 in
05:15 55.6 °F 54.5 °F 30.14 in Calm     96% 0 in
05:20 55.6 °F 54.5 °F 30.14 in Calm     96% 0 in
05:25 55.6 °F 54.5 °F 30.15 in Calm     96% 0 in
05:30 55.6 °F 54.5 °F 30.15 in Calm     96% 0 in
05:35 55.4 °F 54.3 °F 30.15 in Calm     96% 0 in
05:40 55.6 °F 54.5 °F 30.14 in Calm     96% 0 in
05:45 55.6 °F 54.5 °F 30.14 in Calm     96% 0 in
05:50 55.6 °F 54.5 °F 30.15 in Calm     96% 0 in
05:55 55.4 °F 54.3 °F 30.14 in Calm     96% 0 in
06:00 55.4 °F 54.3 °F 30.14 in Calm     96% 0 in
06:05 55.4 °F 54.3 °F 30.14 in Calm     96% 0 in
06:10 55.4 °F 54.3 °F 30.14 in Calm     96% 0 in
06:15 55.2 °F 54.1 °F 30.14 in Calm     96% 0 in
06:20 55.2 °F 54.1 °F 30.14 in Calm     96% 0 in
06:25 55.2 °F 54.1 °F 30.14 in Calm     96% 0 in
06:30 55 °F 54 °F 30.14 in Calm     96% 0 in
06:35 55 °F 54 °F 30.14 in Calm     96% 0 in
06:40 55 °F 54 °F 30.14 in Calm     96% 0 in
06:45 55 °F 54 °F 30.14 in Calm     96% 0 in
06:50 55 °F 54 °F 30.14 in Calm     96% 0 in
06:55 55.2 °F 54.3 °F 30.14 in Calm     97% 0 in
07:00 55.2 °F 54.1 °F 30.14 in Calm     96% 0 in
07:05 55.2 °F 54.1 °F 30.14 in Calm     96% 0 in
07:10 55.2 °F 54.1 °F 30.14 in Calm     96% 0 in
07:15 55.2 °F 54.1 °F 30.14 in Calm     96% 0 in
07:20 55.2 °F 54.1 °F 30.14 in Calm     96% 0 in
07:25 55.4 °F 54.3 °F 30.14 in Calm     96% 0 in
07:30 55.4 °F 54.3 °F 30.15 in Calm     96% 0 in
07:35 55.6 °F 54.7 °F 30.15 in Calm     97% 0 in
07:40 55.9 °F 55 °F 30.15 in Calm     97% 0 in
07:45 56.1 °F 55.2 °F 30.15 in Calm     97% 0 in
07:50 56.5 °F 55.6 °F 30.16 in Calm     97% 0 in
07:55 56.7 °F 55.6 °F 30.16 in Calm     96% 0 in
08:00 56.8 °F 55.8 °F 30.16 in Calm     96% 0 in
08:05 57.6 °F 56.5 °F 30.16 in Calm     96% 0 in
08:10 58.1 °F 57 °F 30.16 in Calm     96% 0 in
08:15 58.5 °F 57.4 °F 30.16 in Calm     96% 0 in
08:20 58.8 °F 57.7 °F 30.16 in Calm     96% 0 in
08:25 59.5 °F 58.1 °F 30.16 in Calm     95% 0 in
08:30 60.3 °F 58.8 °F 30.16 in Calm     95% 0 in
08:35 60.8 °F 59 °F 30.16 in Calm     94% 0 in
08:40 61.3 °F 59.4 °F 30.16 in Calm     93% 0 in
08:45 62.1 °F 59.7 °F 30.16 in Calm     92% 0 in
08:50 63 °F 60.3 °F 30.16 in Calm     91% 0 in
08:55 63.9 °F 60.8 °F 30.16 in Calm     90% 0 in
09:00 64.9 °F 61.9 °F 30.16 in Calm     90% 0 in
09:05 66 °F 63.3 °F 30.16 in Calm     91% 0 in
09:10 66.9 °F 64.8 °F 30.16 in Calm     93% 0 in
09:15 67.5 °F 65.3 °F 30.16 in NNW 0.9 mph 3 mph 93% 0 in
09:20 67.5 °F 65.3 °F 30.16 in Calm   1 mph 93% 0 in
09:25 67.8 °F 65.7 °F 30.16 in SE 2.9 mph 4 mph 93% 0 in
09:30 68.2 °F 65.8 °F 30.16 in SSE 2 mph 2 mph 92% 0 in
09:35 68.7 °F 65.7 °F 30.16 in Calm   2 mph 90% 0 in
09:40 69.4 °F 66.7 °F 30.16 in SSE 2 mph 3 mph 91% 0 in
09:45 70 °F 66.9 °F 30.15 in SSE 0.9 mph 2 mph 90% 0 in
09:50 70.5 °F 67.5 °F 30.16 in SSE 0.9 mph 2 mph 90% 0 in
09:55 71.2 °F 67.8 °F 30.15 in Calm   3 mph 89% 0 in
10:00 72.1 °F 68.4 °F 30.15 in SSE 2.9 mph 4 mph 88% 0 in
10:05 72.9 °F 68.4 °F 30.15 in SSE 2 mph 3 mph 86% 0 in
10:10 73 °F 68.2 °F 30.15 in SSE 0.9 mph 2 mph 85% 0 in
10:15 74.1 °F 68.9 °F 30.15 in SSW 4 mph 4 mph 84% 0 in
10:20 74.1 °F 68 °F 30.15 in SSW 0.9 mph 5 mph 81% 0 in
10:25 74.5 °F 68.2 °F 30.14 in SSW 0.9 mph 3 mph 81% 0 in
10:30 75 °F 68.7 °F 30.14 in SSW 2.9 mph 3 mph 81% 0 in
10:35 75.6 °F 68.2 °F 30.14 in Calm   4 mph 78% 0 in
10:40 76.3 °F 68.5 °F 30.14 in South 4 mph 4 mph 77% 0 in
10:45 76.5 °F 68.4 °F 30.14 in SSW 2 mph 4 mph 76% 0 in
10:50 76.8 °F 68.4 °F 30.14 in SSW 0.9 mph 2 mph 75% 0 in
10:55 77.4 °F 68 °F 30.14 in SSW 0.9 mph 6 mph 73% 0 in
11:00 77.4 °F 68 °F 30.14 in SW 0.9 mph 4 mph 73% 0 in
11:05 77.5 °F 67.8 °F 30.14 in SW 2 mph 3 mph 72% 0 in
11:10 78.3 °F 69.3 °F 30.14 in SE 0.9 mph 4 mph 74% 0 in
11:15 78.4 °F 68.7 °F 30.14 in Calm   4 mph 72% 0 in
11:20 79.2 °F 69.3 °F 30.13 in SSE 2 mph 4 mph 72% 0 in
11:25 79.5 °F 68 °F 30.13 in SSW 2.9 mph 6 mph 68% 0 in
11:30 79.5 °F 68.5 °F 30.13 in SSW 4.9 mph 5 mph 69% 0 in
11:35 79.7 °F 68.2 °F 30.13 in SSE 4.9 mph 7 mph 68% 0 in
11:40 80.6 °F 68.5 °F 30.13 in South 2 mph 2 mph 67% 0 in
11:45 81.1 °F 68.7 °F 30.13 in South 0.9 mph 2 mph 66% 0 in
11:50 81.1 °F 68.7 °F 30.12 in WSW 2.9 mph 5 mph 66% 0 in
11:55 81.3 °F 68.4 °F 30.12 in South 2.9 mph 4 mph 65% 0 in
12:00 82 °F 68.7 °F 30.12 in SSE 6.9 mph 8 mph 64% 0 in
12:05 81.7 °F 68.4 °F 30.12 in SSW 0.9 mph 4 mph 64% 0 in
12:10 81.9 °F 68 °F 30.12 in South 4 mph 8 mph 63% 0 in
12:15 82 °F 69.6 °F 30.12 in SSW 2 mph 6 mph 66% 0 in
12:20 82.6 °F 68.2 °F 30.11 in SW 2 mph 7 mph 62% 0 in
12:25 82.9 °F 68.2 °F 30.11 in WSW 2.9 mph 7 mph 61% 0 in
12:30 82.9 °F 68.2 °F 30.11 in SW 2 mph 10 mph 61% 0 in
12:35 83.7 °F 69.3 °F 30.11 in SE 2.9 mph 5 mph 62% 0 in
12:40 83.5 °F 68.2 °F 30.11 in SSW 6 mph 7 mph 60% 0 in
12:45 84 °F 69.6 °F 30.10 in SE 2 mph 4 mph 62% 0 in
12:50 84.6 °F 68.7 °F 30.10 in South 2 mph 4 mph 59% 0 in
12:55 84.4 °F 69.4 °F 30.10 in WNW 0.9 mph 5 mph 61% 0 in
13:00 84.4 °F 68.9 °F 30.09 in SSW 2.9 mph 5 mph 60% 0 in
13:05 84 °F 69.1 °F 30.09 in South 2.9 mph 9 mph 61% 0 in
13:10 85.3 °F 68.9 °F 30.09 in SW 4.9 mph 7 mph 58% 0 in
13:15 84.9 °F 68 °F 30.09 in SW 2 mph 8 mph 57% 0 in
13:20 84.9 °F 68 °F 30.09 in SSW 4.9 mph 7 mph 57% 0 in
13:25 84.9 °F 68 °F 30.08 in WSW 2.9 mph 5 mph 57% 0 in
13:30 85.6 °F 69.1 °F 30.08 in South 2.9 mph 4 mph 58% 0 in
13:35 85.8 °F 68.4 °F 30.08 in SSE 0.9 mph 4 mph 56% 0 in
13:40 86.2 °F 69.1 °F 30.08 in SSW 4 mph 9 mph 57% 0 in
13:45 86.2 °F 68.2 °F 30.08 in SSW 4.9 mph 7 mph 55% 0 in
13:50 86.4 °F 67.8 °F 30.07 in WSW 2 mph 5 mph 54% 0 in
13:55 86.5 °F 68.4 °F 30.07 in ESE 2.9 mph 7 mph 55% 0 in
14:00 86.7 °F 69.1 °F 30.07 in SSW 2.9 mph 5 mph 56% 0 in
14:05 87.1 °F 68.4 °F 30.07 in South 6 mph 7 mph 54% 0 in
14:10 86.9 °F 67.6 °F 30.06 in SE 2.9 mph 12 mph 53% 0 in
14:15 86.7 °F 67.5 °F 30.06 in SSE 4 mph 7 mph 53% 0 in
14:20 87.1 °F 67.3 °F 30.06 in SSE 4 mph 9 mph 52% 0 in
14:25 86.5 °F 68 °F 30.06 in SSW 2 mph 5 mph 54% 0 in
14:30 86.7 °F 68.5 °F 30.06 in SE 4 mph 7 mph 55% 0 in
14:35 87.6 °F 67.3 °F 30.06 in SSW 2.9 mph 6 mph 51% 0 in
14:40 87.1 °F 68.9 °F 30.05 in SSE 2.9 mph 6 mph 55% 0 in
14:45 87.1 °F 67.3 °F 30.05 in SSE 6.9 mph 11 mph 52% 0 in
14:50 87.3 °F 66.9 °F 30.05 in SE 2.9 mph 8 mph 51% 0 in
14:55 87.3 °F 68 °F 30.05 in SE 2.9 mph 9 mph 53% 0 in
15:00 87.4 °F 67.6 °F 30.05 in SSE 4.9 mph 9 mph 52% 0 in
15:05 86.9 °F 68.2 °F 30.04 in SSW 2.9 mph 7 mph 54% 0 in
15:10 86 °F 67.5 °F 30.04 in SSW 0.9 mph 6 mph 54% 0 in
15:15 86.5 °F 68 °F 30.04 in South 4.9 mph 7 mph 54% 0 in
Atglen Borough Observatory, Pennsylvania, USA
Compliments of Weather Underground - 3 mb